sensor_id;sensor_type;location;lat;lon;timestamp;temperature;humidity
24148;DHT22;12309;51.450;-2.624;2023-12-20T15:51:25;10.40;99.90
24148;DHT22;12309;51.450;-2.624;2023-12-20T15:53:51;10.50;99.90
24148;DHT22;12309;51.450;-2.624;2023-12-20T15:56:17;10.50;99.90
24148;DHT22;12309;51.450;-2.624;2023-12-20T15:58:46;10.50;99.90
24148;DHT22;12309;51.450;-2.624;2023-12-20T16:01:17;10.50;99.90
24148;DHT22;12309;51.450;-2.624;2023-12-20T16:03:43;10.50;99.90
24148;DHT22;12309;51.450;-2.624;2023-12-20T16:06:09;10.60;99.90
24148;DHT22;12309;51.450;-2.624;2023-12-20T16:08:36;10.50;99.90
24148;DHT22;12309;51.450;-2.624;2023-12-20T16:11:01;10.50;99.90
24148;DHT22;12309;51.450;-2.624;2023-12-20T16:13:27;10.60;99.90
24148;DHT22;12309;51.450;-2.624;2023-12-20T16:15:53;10.60;99.90
24148;DHT22;12309;51.450;-2.624;2023-12-20T16:18:20;10.60;99.90
24148;DHT22;12309;51.450;-2.624;2023-12-20T16:20:55;10.60;99.90
24148;DHT22;12309;51.450;-2.624;2023-12-20T16:23:23;10.60;99.90
24148;DHT22;12309;51.450;-2.624;2023-12-20T16:25:52;10.60;99.90
24148;DHT22;12309;51.450;-2.624;2023-12-20T16:28:18;10.60;99.90
24148;DHT22;12309;51.450;-2.624;2023-12-20T16:30:44;10.60;99.90
24148;DHT22;12309;51.450;-2.624;2023-12-20T16:33:10;10.70;99.90
24148;DHT22;12309;51.450;-2.624;2023-12-20T16:35:36;10.60;99.90
24148;DHT22;12309;51.450;-2.624;2023-12-20T16:38:02;10.70;99.90
24148;DHT22;12309;51.450;-2.624;2023-12-20T16:40:27;10.60;99.90
24148;DHT22;12309;51.450;-2.624;2023-12-20T16:42:53;10.70;99.90
24148;DHT22;12309;51.450;-2.624;2023-12-20T16:45:22;10.70;99.90
24148;DHT22;12309;51.450;-2.624;2023-12-20T16:47:48;10.70;99.90
24148;DHT22;12309;51.450;-2.624;2023-12-20T16:50:14;10.70;99.90
24148;DHT22;12309;51.450;-2.624;2023-12-20T16:52:40;10.70;99.90
24148;DHT22;12309;51.450;-2.624;2023-12-20T16:55:09;10.70;99.90
24148;DHT22;12309;51.450;-2.624;2023-12-20T16:57:35;10.70;99.90
24148;DHT22;12309;51.450;-2.624;2023-12-20T17:00:01;10.70;99.90
24148;DHT22;12309;51.450;-2.624;2023-12-20T17:02:27;10.70;99.90
24148;DHT22;12309;51.450;-2.624;2023-12-20T17:04:53;10.70;99.90
24148;DHT22;12309;51.450;-2.624;2023-12-20T17:07:18;10.80;99.90
24148;DHT22;12309;51.450;-2.624;2023-12-20T17:09:44;10.70;99.90
24148;DHT22;12309;51.450;-2.624;2023-12-20T17:12:11;10.70;99.90
24148;DHT22;12309;51.450;-2.624;2023-12-20T17:14:37;10.70;99.90
24148;DHT22;12309;51.450;-2.624;2023-12-20T17:17:03;10.80;99.90
24148;DHT22;12309;51.450;-2.624;2023-12-20T17:19:29;10.70;99.90
24148;DHT22;12309;51.450;-2.624;2023-12-20T17:21:57;10.70;99.90
24148;DHT22;12309;51.450;-2.624;2023-12-20T17:24:22;10.70;99.90
24148;DHT22;12309;51.450;-2.624;2023-12-20T17:26:48;10.70;99.90
24148;DHT22;12309;51.450;-2.624;2023-12-20T17:29:14;10.80;99.90
24148;DHT22;12309;51.450;-2.624;2023-12-20T17:31:40;10.80;99.90
24148;DHT22;12309;51.450;-2.624;2023-12-20T17:34:08;10.80;99.90
24148;DHT22;12309;51.450;-2.624;2023-12-20T17:36:40;10.80;99.90
24148;DHT22;12309;51.450;-2.624;2023-12-20T17:39:05;10.80;99.90
24148;DHT22;12309;51.450;-2.624;2023-12-20T17:41:31;10.80;99.90
24148;DHT22;12309;51.450;-2.624;2023-12-20T17:43:58;10.70;99.90
24148;DHT22;12309;51.450;-2.624;2023-12-20T17:46:24;10.80;99.90
24148;DHT22;12309;51.450;-2.624;2023-12-20T17:48:49;10.80;99.90
24148;DHT22;12309;51.450;-2.624;2023-12-20T17:51:15;10.80;99.90
24148;DHT22;12309;51.450;-2.624;2023-12-20T17:53:41;10.80;99.90
24148;DHT22;12309;51.450;-2.624;2023-12-20T17:56:07;10.80;99.90
24148;DHT22;12309;51.450;-2.624;2023-12-20T17:58:33;10.80;99.90
24148;DHT22;12309;51.450;-2.624;2023-12-20T18:00:58;10.80;99.90
24148;DHT22;12309;51.450;-2.624;2023-12-20T18:03:25;10.80;99.90
24148;DHT22;12309;51.450;-2.624;2023-12-20T18:05:50;10.80;99.90
24148;DHT22;12309;51.450;-2.624;2023-12-20T18:08:16;10.80;99.90
24148;DHT22;12309;51.450;-2.624;2023-12-20T18:10:42;10.70;99.90
24148;DHT22;12309;51.450;-2.624;2023-12-20T18:13:07;10.80;99.90
24148;DHT22;12309;51.450;-2.624;2023-12-20T18:15:33;10.70;99.90
24148;DHT22;12309;51.450;-2.624;2023-12-20T18:17:59;10.70;99.90
24148;DHT22;12309;51.450;-2.624;2023-12-20T18:22:50;10.80;99.90
24148;DHT22;12309;51.450;-2.624;2023-12-20T18:25:18;10.70;99.90
24148;DHT22;12309;51.450;-2.624;2023-12-20T18:27:44;10.70;99.90
24148;DHT22;12309;51.450;-2.624;2023-12-20T18:30:10;10.70;99.90
24148;DHT22;12309;51.450;-2.624;2023-12-20T18:32:36;10.70;99.90
24148;DHT22;12309;51.450;-2.624;2023-12-20T18:35:03;10.60;99.90
24148;DHT22;12309;51.450;-2.624;2023-12-20T18:37:29;10.80;99.90
24148;DHT22;12309;51.450;-2.624;2023-12-20T18:39:58;10.60;99.90
24148;DHT22;12309;51.450;-2.624;2023-12-20T18:42:24;10.60;99.90
24148;DHT22;12309;51.450;-2.624;2023-12-20T18:44:50;10.60;99.90
24148;DHT22;12309;51.450;-2.624;2023-12-20T18:47:15;10.60;99.90
24148;DHT22;12309;51.450;-2.624;2023-12-20T18:49:41;10.60;99.90
24148;DHT22;12309;51.450;-2.624;2023-12-20T18:52:07;10.70;99.90
24148;DHT22;12309;51.450;-2.624;2023-12-20T18:54:33;10.70;99.90
24148;DHT22;12309;51.450;-2.624;2023-12-20T18:56:58;10.70;99.90
24148;DHT22;12309;51.450;-2.624;2023-12-20T18:59:24;10.70;99.90
24148;DHT22;12309;51.450;-2.624;2023-12-20T19:01:51;10.70;99.90
24148;DHT22;12309;51.450;-2.624;2023-12-20T19:04:17;10.80;99.90
24148;DHT22;12309;51.450;-2.624;2023-12-20T19:06:42;10.80;99.90
24148;DHT22;12309;51.450;-2.624;2023-12-20T19:09:08;10.80;99.90
24148;DHT22;12309;51.450;-2.624;2023-12-20T19:11:34;10.80;99.90
24148;DHT22;12309;51.450;-2.624;2023-12-20T19:14:01;10.80;99.90
24148;DHT22;12309;51.450;-2.624;2023-12-20T19:16:27;10.80;99.90
24148;DHT22;12309;51.450;-2.624;2023-12-20T19:18:53;10.90;99.90
24148;DHT22;12309;51.450;-2.624;2023-12-20T19:21:19;10.90;99.90
24148;DHT22;12309;51.450;-2.624;2023-12-20T19:23:46;10.90;99.90
24148;DHT22;12309;51.450;-2.624;2023-12-20T19:26:12;10.90;99.90
24148;DHT22;12309;51.450;-2.624;2023-12-20T19:28:38;11.00;99.90
24148;DHT22;12309;51.450;-2.624;2023-12-20T19:31:08;11.00;99.90
24148;DHT22;12309;51.450;-2.624;2023-12-20T19:33:37;11.00;99.90
24148;DHT22;12309;51.450;-2.624;2023-12-20T19:36:05;11.00;99.90
24148;DHT22;12309;51.450;-2.624;2023-12-20T19:38:31;11.10;99.90
24148;DHT22;12309;51.450;-2.624;2023-12-20T19:40:56;11.10;99.90
24148;DHT22;12309;51.450;-2.624;2023-12-20T19:43:22;11.00;99.90
24148;DHT22;12309;51.450;-2.624;2023-12-20T19:45:48;11.30;99.90
24148;DHT22;12309;51.450;-2.624;2023-12-20T19:48:14;11.10;99.90
24148;DHT22;12309;51.450;-2.624;2023-12-20T19:50:40;11.10;99.90
24148;DHT22;12309;51.450;-2.624;2023-12-20T19:53:06;11.10;99.90
24148;DHT22;12309;51.450;-2.624;2023-12-20T19:55:31;11.10;99.90
24148;DHT22;12309;51.450;-2.624;2023-12-20T19:58:00;11.10;99.90
24148;DHT22;12309;51.450;-2.624;2023-12-20T20:00:26;11.10;99.90
24148;DHT22;12309;51.450;-2.624;2023-12-20T20:02:51;11.10;99.90
24148;DHT22;12309;51.450;-2.624;2023-12-20T20:05:17;11.10;99.90
24148;DHT22;12309;51.450;-2.624;2023-12-20T20:07:43;11.10;99.90
24148;DHT22;12309;51.450;-2.624;2023-12-20T20:10:09;11.10;99.90
24148;DHT22;12309;51.450;-2.624;2023-12-20T20:12:34;10.90;99.90
24148;DHT22;12309;51.450;-2.624;2023-12-20T20:15:00;11.10;99.90
24148;DHT22;12309;51.450;-2.624;2023-12-20T20:17:26;11.10;99.90
24148;DHT22;12309;51.450;-2.624;2023-12-20T20:19:52;11.10;99.90
24148;DHT22;12309;51.450;-2.624;2023-12-20T20:22:18;11.10;99.90
24148;DHT22;12309;51.450;-2.624;2023-12-20T20:24:44;11.10;99.90
24148;DHT22;12309;51.450;-2.624;2023-12-20T20:27:12;11.10;99.90
24148;DHT22;12309;51.450;-2.624;2023-12-20T20:29:38;11.10;99.90
24148;DHT22;12309;51.450;-2.624;2023-12-20T20:32:04;11.10;99.90
24148;DHT22;12309;51.450;-2.624;2023-12-20T20:34:30;11.10;99.90
24148;DHT22;12309;51.450;-2.624;2023-12-20T20:36:56;11.10;99.90
24148;DHT22;12309;51.450;-2.624;2023-12-20T20:39:21;11.10;99.90
24148;DHT22;12309;51.450;-2.624;2023-12-20T20:41:47;11.00;99.90
24148;DHT22;12309;51.450;-2.624;2023-12-20T20:44:13;11.00;99.90
24148;DHT22;12309;51.450;-2.624;2023-12-20T20:46:39;11.10;99.90
24148;DHT22;12309;51.450;-2.624;2023-12-20T20:49:05;11.10;99.90
24148;DHT22;12309;51.450;-2.624;2023-12-20T20:51:31;11.10;99.90
24148;DHT22;12309;51.450;-2.624;2023-12-20T20:53:57;11.10;99.90
24148;DHT22;12309;51.450;-2.624;2023-12-20T20:56:23;11.10;99.90
24148;DHT22;12309;51.450;-2.624;2023-12-20T20:58:48;11.10;99.90
24148;DHT22;12309;51.450;-2.624;2023-12-20T21:01:18;11.10;99.90
24148;DHT22;12309;51.450;-2.624;2023-12-20T21:03:43;11.10;99.90
24148;DHT22;12309;51.450;-2.624;2023-12-20T21:06:10;11.10;99.90
24148;DHT22;12309;51.450;-2.624;2023-12-20T21:08:36;11.10;99.90
24148;DHT22;12309;51.450;-2.624;2023-12-20T21:11:01;11.10;99.90
24148;DHT22;12309;51.450;-2.624;2023-12-20T21:13:27;11.00;99.90
24148;DHT22;12309;51.450;-2.624;2023-12-20T21:15:54;11.10;99.90
24148;DHT22;12309;51.450;-2.624;2023-12-20T21:18:20;11.00;99.90
24148;DHT22;12309;51.450;-2.624;2023-12-20T21:20:46;11.00;99.90
24148;DHT22;12309;51.450;-2.624;2023-12-20T21:23:17;11.00;99.90
24148;DHT22;12309;51.450;-2.624;2023-12-20T21:25:43;11.00;99.90
24148;DHT22;12309;51.450;-2.624;2023-12-20T21:28:10;11.10;99.90
24148;DHT22;12309;51.450;-2.624;2023-12-20T21:30:37;11.10;99.90
24148;DHT22;12309;51.450;-2.624;2023-12-20T21:33:03;11.10;99.90
24148;DHT22;12309;51.450;-2.624;2023-12-20T21:35:29;11.10;99.90
24148;DHT22;12309;51.450;-2.624;2023-12-20T21:37:55;11.10;99.90
24148;DHT22;12309;51.450;-2.624;2023-12-20T21:40:21;11.10;99.90
24148;DHT22;12309;51.450;-2.624;2023-12-20T21:42:46;11.10;99.90
24148;DHT22;12309;51.450;-2.624;2023-12-20T21:45:12;11.10;99.90
24148;DHT22;12309;51.450;-2.624;2023-12-20T21:47:38;11.10;99.90
24148;DHT22;12309;51.450;-2.624;2023-12-20T21:50:04;11.10;99.90
24148;DHT22;12309;51.450;-2.624;2023-12-20T21:52:30;11.10;99.90
24148;DHT22;12309;51.450;-2.624;2023-12-20T21:54:55;11.10;99.90
24148;DHT22;12309;51.450;-2.624;2023-12-20T21:57:21;11.10;99.90
24148;DHT22;12309;51.450;-2.624;2023-12-20T21:59:47;11.10;99.90
24148;DHT22;12309;51.450;-2.624;2023-12-20T22:02:12;11.10;99.90
24148;DHT22;12309;51.450;-2.624;2023-12-20T22:04:38;11.10;99.90
24148;DHT22;12309;51.450;-2.624;2023-12-20T22:07:04;11.10;99.90
24148;DHT22;12309;51.450;-2.624;2023-12-20T22:09:30;11.20;99.90
24148;DHT22;12309;51.450;-2.624;2023-12-20T22:11:55;11.10;99.90
24148;DHT22;12309;51.450;-2.624;2023-12-20T22:14:21;11.20;99.90
24148;DHT22;12309;51.450;-2.624;2023-12-20T22:16:47;11.20;99.90
24148;DHT22;12309;51.450;-2.624;2023-12-20T22:19:13;11.20;99.90
24148;DHT22;12309;51.450;-2.624;2023-12-20T22:21:38;11.20;99.90
24148;DHT22;12309;51.450;-2.624;2023-12-20T22:24:04;11.30;99.90
24148;DHT22;12309;51.450;-2.624;2023-12-20T22:26:30;11.30;99.90
24148;DHT22;12309;51.450;-2.624;2023-12-20T22:28:56;11.20;99.90
24148;DHT22;12309;51.450;-2.624;2023-12-20T22:31:22;10.90;99.90
24148;DHT22;12309;51.450;-2.624;2023-12-20T22:33:48;11.20;99.90
24148;DHT22;12309;51.450;-2.624;2023-12-20T22:36:13;11.20;99.90
24148;DHT22;12309;51.450;-2.624;2023-12-20T22:38:39;11.20;99.90
24148;DHT22;12309;51.450;-2.624;2023-12-20T22:41:06;11.20;99.90
24148;DHT22;12309;51.450;-2.624;2023-12-20T22:43:35;11.20;99.90
24148;DHT22;12309;51.450;-2.624;2023-12-20T22:46:01;11.20;99.90
